PAA2522 KFZY-KBOS
Flight info
| Callsign | PAA2522 |
|---|---|
| Flight time | 1h 22m |
| Altitude | 19000 |
| Route | SAEZE PONCT JFUND2 |
| Aircraft | DC6/M-SDE1FGHIRWXY/S |
Departure
| Time | 2026-05-06 00:34 |
|---|---|
| Airport | Oswego County Airport (KFZY) |
Arrival
| Time | 2026-05-06 01:56 |
|---|---|
| Airport | Boston Logan International Airport (KBOS) |
| Time | Latitude | Longitude | Altitude | Speed | Heading |
|---|---|---|---|---|---|
| 2026-05-06 00:09 | 43.34969 | -76.39203 | 469 ft | 0 kts | 49° |
| 2026-05-06 00:24 | 43.34970 | -76.39203 | 469 ft | 1 kts | 49° |
| 2026-05-06 00:24 | 43.34994 | -76.39170 | 467 ft | 10 kts | 29° |
| 2026-05-06 00:24 | 43.35065 | -76.39143 | 468 ft | 6 kts | 36° |
| 2026-05-06 00:25 | 43.35079 | -76.39087 | 469 ft | 9 kts | 92° |
| 2026-05-06 00:25 | 43.35075 | -76.38974 | 470 ft | 14 kts | 97° |
| 2026-05-06 00:25 | 43.35011 | -76.38871 | 470 ft | 17 kts | 138° |
| 2026-05-06 00:25 | 43.34920 | -76.38755 | 472 ft | 18 kts | 136° |
| 2026-05-06 00:26 | 43.34832 | -76.38640 | 474 ft | 17 kts | 136° |
| 2026-05-06 00:26 | 43.34744 | -76.38530 | 472 ft | 17 kts | 136° |
| 2026-05-06 00:26 | 43.34649 | -76.38407 | 476 ft | 21 kts | 137° |
| 2026-05-06 00:26 | 43.34554 | -76.38286 | 481 ft | 14 kts | 138° |
| 2026-05-06 00:27 | 43.34547 | -76.38226 | 479 ft | 0 kts | 50° |
| 2026-05-06 00:31 | 43.34576 | -76.38178 | 477 ft | 12 kts | 50° |
| 2026-05-06 00:31 | 43.34621 | -76.38165 | 477 ft | 3 kts | 319° |
| 2026-05-06 00:32 | 43.34621 | -76.38166 | 477 ft | 0 kts | 319° |
| 2026-05-06 00:32 | 43.34623 | -76.38167 | 477 ft | 0 kts | 319° |
| 2026-05-06 00:33 | 43.34699 | -76.38263 | 478 ft | 41 kts | 316° |
| 2026-05-06 00:33 | 43.35038 | -76.38699 | 473 ft | 90 kts | 316° |
| 2026-05-06 00:33 | 43.35562 | -76.39402 | 573 ft | 113 kts | 315° |
| 2026-05-06 00:34 | 43.36126 | -76.40172 | 865 ft | 116 kts | 318° |
| 2026-05-06 00:34 | 43.36751 | -76.40953 | 1176 ft | 130 kts | 317° |
| 2026-05-06 00:34 | 43.37482 | -76.41829 | 1420 ft | 146 kts | 320° |
| 2026-05-06 00:34 | 43.38257 | -76.42754 | 1810 ft | 149 kts | 319° |
| 2026-05-06 00:35 | 43.39025 | -76.43676 | 2196 ft | 145 kts | 319° |
| 2026-05-06 00:35 | 43.39794 | -76.44558 | 2485 ft | 145 kts | 319° |
| 2026-05-06 00:35 | 43.40591 | -76.45425 | 2718 ft | 147 kts | 319° |
| 2026-05-06 00:35 | 43.41405 | -76.46300 | 2964 ft | 150 kts | 319° |
| 2026-05-06 00:36 | 43.42360 | -76.46967 | 3053 ft | 166 kts | 349° |
| 2026-05-06 00:36 | 43.43480 | -76.46405 | 3191 ft | 186 kts | 39° |
| 2026-05-06 00:36 | 43.44008 | -76.44758 | 3355 ft | 197 kts | 86° |
| 2026-05-06 00:36 | 43.43823 | -76.43543 | 3484 ft | 198 kts | 118° |
| 2026-05-06 00:37 | 43.42916 | -76.42198 | 3740 ft | 190 kts | 141° |
| 2026-05-06 00:37 | 43.42091 | -76.40763 | 4012 ft | 192 kts | 129° |
| 2026-05-06 00:37 | 43.41280 | -76.39331 | 4255 ft | 188 kts | 145° |
| 2026-05-06 00:37 | 43.39817 | -76.38172 | 4545 ft | 185 kts | 149° |
| 2026-05-06 00:38 | 43.38804 | -76.37070 | 4824 ft | 186 kts | 148° |
| 2026-05-06 00:38 | 43.37787 | -76.35961 | 5092 ft | 187 kts | 148° |
| 2026-05-06 00:38 | 43.36769 | -76.34829 | 5355 ft | 189 kts | 149° |
| 2026-05-06 00:38 | 43.36083 | -76.34048 | 5539 ft | 190 kts | 148° |
| 2026-05-06 00:39 | 43.35098 | -76.32822 | 5819 ft | 194 kts | 141° |
| 2026-05-06 00:39 | 43.34313 | -76.31264 | 6086 ft | 203 kts | 125° |
| 2026-05-06 00:39 | 43.33891 | -76.29369 | 6336 ft | 212 kts | 105° |
| 2026-05-06 00:39 | 43.33711 | -76.27344 | 6580 ft | 214 kts | 103° |
| 2026-05-06 00:40 | 43.33496 | -76.25320 | 6813 ft | 215 kts | 105° |
| 2026-05-06 00:40 | 43.33249 | -76.23293 | 7055 ft | 215 kts | 105° |
| 2026-05-06 00:40 | 43.33007 | -76.21258 | 7295 ft | 217 kts | 105° |
| 2026-05-06 00:40 | 43.32764 | -76.19209 | 7547 ft | 218 kts | 106° |
| 2026-05-06 00:41 | 43.32515 | -76.17187 | 7799 ft | 216 kts | 110° |
| 2026-05-06 00:41 | 43.32006 | -76.15281 | 8028 ft | 212 kts | 120° |
| 2026-05-06 00:41 | 43.31518 | -76.13358 | 8276 ft | 215 kts | 116° |
| 2026-05-06 00:41 | 43.31065 | -76.11400 | 8531 ft | 215 kts | 116° |
| 2026-05-06 00:42 | 43.30595 | -76.09454 | 8815 ft | 215 kts | 117° |
| 2026-05-06 00:42 | 43.30120 | -76.07507 | 9104 ft | 215 kts | 117° |
| 2026-05-06 00:42 | 43.29644 | -76.05554 | 9375 ft | 216 kts | 117° |
| 2026-05-06 00:42 | 43.29166 | -76.03590 | 9657 ft | 217 kts | 117° |
| 2026-05-06 00:43 | 43.28685 | -76.01618 | 9919 ft | 218 kts | 117° |
| 2026-05-06 00:43 | 43.28202 | -75.99636 | 10161 ft | 220 kts | 117° |
| 2026-05-06 00:43 | 43.27716 | -75.97644 | 10394 ft | 221 kts | 117° |
| 2026-05-06 00:43 | 43.27227 | -75.95640 | 10646 ft | 222 kts | 118° |
| 2026-05-06 00:44 | 43.26735 | -75.93630 | 10903 ft | 222 kts | 118° |
| 2026-05-06 00:44 | 43.26242 | -75.91616 | 11148 ft | 223 kts | 118° |
| 2026-05-06 00:44 | 43.25747 | -75.89594 | 11412 ft | 223 kts | 118° |
| 2026-05-06 00:44 | 43.25252 | -75.87574 | 11689 ft | 223 kts | 118° |
| 2026-05-06 00:45 | 43.24756 | -75.85553 | 11933 ft | 224 kts | 118° |
| 2026-05-06 00:45 | 43.24254 | -75.83517 | 12173 ft | 226 kts | 118° |
| 2026-05-06 00:45 | 43.23752 | -75.81471 | 12413 ft | 227 kts | 118° |
| 2026-05-06 00:45 | 43.23247 | -75.79416 | 12668 ft | 228 kts | 118° |
| 2026-05-06 00:46 | 43.22738 | -75.77354 | 12920 ft | 229 kts | 118° |
| 2026-05-06 00:46 | 43.22222 | -75.75265 | 13009 ft | 239 kts | 118° |
| 2026-05-06 00:46 | 43.21672 | -75.73061 | 13021 ft | 250 kts | 117° |
| 2026-05-06 00:46 | 43.21104 | -75.70754 | 13022 ft | 260 kts | 117° |
| 2026-05-06 00:47 | 43.20516 | -75.68357 | 13025 ft | 272 kts | 116° |
| 2026-05-06 00:47 | 43.19899 | -75.65884 | 13023 ft | 284 kts | 116° |
| 2026-05-06 00:47 | 43.19259 | -75.63291 | 13018 ft | 292 kts | 116° |
| 2026-05-06 00:47 | 43.18608 | -75.60650 | 13256 ft | 289 kts | 116° |
| 2026-05-06 00:48 | 43.17976 | -75.58073 | 13590 ft | 282 kts | 116° |
| 2026-05-06 00:48 | 43.17347 | -75.55555 | 13847 ft | 277 kts | 117° |
| 2026-05-06 00:48 | 43.16728 | -75.53075 | 14059 ft | 273 kts | 117° |
| 2026-05-06 00:48 | 43.16122 | -75.50639 | 14292 ft | 267 kts | 117° |
| 2026-05-06 00:49 | 43.15531 | -75.48264 | 14541 ft | 261 kts | 117° |
| 2026-05-06 00:49 | 43.14948 | -75.45934 | 14782 ft | 257 kts | 118° |
| 2026-05-06 00:49 | 43.14373 | -75.43636 | 14996 ft | 253 kts | 118° |
| 2026-05-06 00:49 | 43.13805 | -75.41365 | 15197 ft | 251 kts | 118° |
| 2026-05-06 00:50 | 43.13241 | -75.39112 | 15396 ft | 249 kts | 118° |
| 2026-05-06 00:50 | 43.12679 | -75.36873 | 15587 ft | 248 kts | 118° |
| 2026-05-06 00:50 | 43.12121 | -75.34648 | 15761 ft | 247 kts | 118° |
| 2026-05-06 00:50 | 43.11564 | -75.32429 | 15928 ft | 246 kts | 119° |
| 2026-05-06 00:51 | 43.11008 | -75.30219 | 16101 ft | 245 kts | 119° |
| 2026-05-06 00:51 | 43.10453 | -75.28015 | 16250 ft | 244 kts | 119° |
| 2026-05-06 00:51 | 43.09901 | -75.25817 | 16404 ft | 244 kts | 119° |
| 2026-05-06 00:51 | 43.09347 | -75.23626 | 16551 ft | 244 kts | 119° |
| 2026-05-06 00:52 | 43.08797 | -75.21440 | 16695 ft | 243 kts | 119° |
| 2026-05-06 00:52 | 43.08245 | -75.19252 | 16833 ft | 243 kts | 119° |
| 2026-05-06 00:52 | 43.07699 | -75.17099 | 16960 ft | 243 kts | 119° |
| 2026-05-06 00:52 | 43.07148 | -75.14916 | 17100 ft | 243 kts | 119° |
| 2026-05-06 00:53 | 43.06598 | -75.12741 | 17227 ft | 242 kts | 119° |
| 2026-05-06 00:53 | 43.06048 | -75.10574 | 17342 ft | 242 kts | 119° |
| 2026-05-06 00:53 | 43.05486 | -75.08373 | 17499 ft | 247 kts | 119° |
| 2026-05-06 00:53 | 43.04919 | -75.06140 | 17696 ft | 250 kts | 119° |
| 2026-05-06 00:54 | 43.04348 | -75.03881 | 17915 ft | 252 kts | 118° |
| 2026-05-06 00:54 | 43.03771 | -75.01613 | 18101 ft | 253 kts | 119° |
| 2026-05-06 00:54 | 43.03190 | -74.99334 | 18274 ft | 255 kts | 118° |
| 2026-05-06 00:54 | 43.02607 | -74.97046 | 18448 ft | 255 kts | 118° |
| 2026-05-06 00:55 | 43.02022 | -74.94751 | 18616 ft | 256 kts | 118° |
| 2026-05-06 00:55 | 43.01429 | -74.92438 | 18706 ft | 261 kts | 118° |
| 2026-05-06 00:55 | 43.00824 | -74.90076 | 18784 ft | 265 kts | 118° |
| 2026-05-06 00:55 | 43.00212 | -74.87680 | 18852 ft | 270 kts | 118° |
| 2026-05-06 00:56 | 42.99579 | -74.85217 | 18845 ft | 279 kts | 118° |
| 2026-05-06 00:56 | 42.98931 | -74.82689 | 18846 ft | 285 kts | 117° |
| 2026-05-06 00:56 | 42.98270 | -74.80112 | 18843 ft | 290 kts | 117° |
| 2026-05-06 00:56 | 42.97598 | -74.77489 | 18841 ft | 295 kts | 117° |
| 2026-05-06 00:57 | 42.96916 | -74.74836 | 18835 ft | 297 kts | 117° |
| 2026-05-06 00:57 | 42.96229 | -74.72169 | 18833 ft | 299 kts | 117° |
| 2026-05-06 00:57 | 42.95542 | -74.69495 | 18831 ft | 298 kts | 117° |
| 2026-05-06 00:57 | 42.94853 | -74.66828 | 18829 ft | 298 kts | 117° |
| 2026-05-06 00:58 | 42.94164 | -74.64166 | 18823 ft | 297 kts | 117° |
| 2026-05-06 00:58 | 42.93476 | -74.61505 | 18823 ft | 297 kts | 117° |
| 2026-05-06 00:58 | 42.92787 | -74.58847 | 18817 ft | 298 kts | 117° |
| 2026-05-06 00:58 | 42.92097 | -74.56183 | 18816 ft | 298 kts | 117° |
| 2026-05-06 00:59 | 42.91406 | -74.53525 | 18814 ft | 297 kts | 117° |
| 2026-05-06 00:59 | 42.90715 | -74.50863 | 18814 ft | 298 kts | 117° |
| 2026-05-06 00:59 | 42.90025 | -74.48205 | 18816 ft | 297 kts | 117° |
| 2026-05-06 00:59 | 42.89332 | -74.45554 | 18821 ft | 297 kts | 117° |
| 2026-05-06 01:00 | 42.88642 | -74.42906 | 18811 ft | 296 kts | 117° |
| 2026-05-06 01:00 | 42.87954 | -74.40267 | 18817 ft | 295 kts | 117° |
| 2026-05-06 01:00 | 42.87266 | -74.37633 | 18814 ft | 295 kts | 117° |
| 2026-05-06 01:00 | 42.86578 | -74.35004 | 18820 ft | 294 kts | 117° |
| 2026-05-06 01:01 | 42.85888 | -74.32375 | 18821 ft | 295 kts | 117° |
| 2026-05-06 01:01 | 42.85199 | -74.29744 | 18820 ft | 295 kts | 117° |
| 2026-05-06 01:01 | 42.84518 | -74.27151 | 18813 ft | 295 kts | 117° |
| 2026-05-06 01:01 | 42.83827 | -74.24524 | 18817 ft | 295 kts | 117° |
| 2026-05-06 01:02 | 42.83126 | -74.21855 | 18822 ft | 295 kts | 117° |
| 2026-05-06 01:02 | 42.82442 | -74.19257 | 18818 ft | 295 kts | 117° |
| 2026-05-06 01:02 | 42.81748 | -74.16626 | 18822 ft | 296 kts | 117° |
| 2026-05-06 01:02 | 42.81053 | -74.13989 | 18820 ft | 296 kts | 117° |
| 2026-05-06 01:03 | 42.80355 | -74.11351 | 18821 ft | 296 kts | 116° |
| 2026-05-06 01:03 | 42.79659 | -74.08716 | 18822 ft | 295 kts | 116° |
| 2026-05-06 01:03 | 42.78962 | -74.06088 | 18816 ft | 295 kts | 117° |
| 2026-05-06 01:03 | 42.78266 | -74.03460 | 18825 ft | 295 kts | 116° |
| 2026-05-06 01:04 | 42.77569 | -74.00831 | 18825 ft | 296 kts | 116° |
| 2026-05-06 01:04 | 42.76869 | -73.98199 | 18827 ft | 296 kts | 116° |
| 2026-05-06 01:04 | 42.76169 | -73.95567 | 18832 ft | 296 kts | 116° |
| 2026-05-06 01:04 | 42.75469 | -73.92940 | 18829 ft | 296 kts | 116° |
| 2026-05-06 01:05 | 42.74769 | -73.90306 | 18829 ft | 296 kts | 116° |
| 2026-05-06 01:05 | 42.74069 | -73.87683 | 18831 ft | 295 kts | 117° |
| 2026-05-06 01:05 | 42.73365 | -73.85053 | 18830 ft | 295 kts | 116° |
| 2026-05-06 01:05 | 42.72664 | -73.82429 | 18829 ft | 295 kts | 116° |
| 2026-05-06 01:06 | 42.71963 | -73.79807 | 18827 ft | 295 kts | 116° |
| 2026-05-06 01:06 | 42.71260 | -73.77188 | 18828 ft | 295 kts | 116° |
| 2026-05-06 01:06 | 42.70559 | -73.74571 | 18824 ft | 294 kts | 116° |
| 2026-05-06 01:06 | 42.69858 | -73.71960 | 18823 ft | 294 kts | 116° |
| 2026-05-06 01:07 | 42.69157 | -73.69357 | 18821 ft | 293 kts | 116° |
| 2026-05-06 01:07 | 42.68455 | -73.66750 | 18819 ft | 294 kts | 116° |
| 2026-05-06 01:07 | 42.67755 | -73.64146 | 18821 ft | 293 kts | 116° |
| 2026-05-06 01:07 | 42.67054 | -73.61551 | 18819 ft | 292 kts | 116° |
| 2026-05-06 01:08 | 42.66354 | -73.58955 | 18819 ft | 292 kts | 116° |
| 2026-05-06 01:08 | 42.65664 | -73.56399 | 18821 ft | 292 kts | 116° |
| 2026-05-06 01:08 | 42.64961 | -73.53805 | 18823 ft | 293 kts | 116° |
| 2026-05-06 01:08 | 42.64258 | -73.51208 | 18826 ft | 293 kts | 116° |
| 2026-05-06 01:09 | 42.63552 | -73.48607 | 18832 ft | 293 kts | 116° |
| 2026-05-06 01:09 | 42.62848 | -73.46009 | 18837 ft | 293 kts | 116° |
| 2026-05-06 01:09 | 42.62142 | -73.43410 | 18840 ft | 293 kts | 116° |
| 2026-05-06 01:09 | 42.61435 | -73.40813 | 18837 ft | 293 kts | 116° |
| 2026-05-06 01:10 | 42.60729 | -73.38219 | 18837 ft | 293 kts | 116° |
| 2026-05-06 01:10 | 42.60023 | -73.35628 | 18841 ft | 293 kts | 116° |
| 2026-05-06 01:10 | 42.59315 | -73.33033 | 18840 ft | 293 kts | 116° |
| 2026-05-06 01:10 | 42.58607 | -73.30443 | 18843 ft | 293 kts | 116° |
| 2026-05-06 01:11 | 42.57900 | -73.27856 | 18846 ft | 293 kts | 116° |
| 2026-05-06 01:11 | 42.57192 | -73.25264 | 18843 ft | 293 kts | 116° |
| 2026-05-06 01:11 | 42.56483 | -73.22678 | 18844 ft | 293 kts | 116° |
| 2026-05-06 01:11 | 42.55771 | -73.20088 | 18840 ft | 293 kts | 115° |
| 2026-05-06 01:12 | 42.55061 | -73.17499 | 18844 ft | 293 kts | 116° |
| 2026-05-06 01:12 | 42.54351 | -73.14913 | 18847 ft | 293 kts | 116° |
| 2026-05-06 01:12 | 42.53640 | -73.12332 | 18851 ft | 292 kts | 116° |
| 2026-05-06 01:12 | 42.52930 | -73.09755 | 18857 ft | 292 kts | 116° |
| 2026-05-06 01:13 | 42.52218 | -73.07177 | 18854 ft | 292 kts | 116° |
| 2026-05-06 01:13 | 42.51508 | -73.04600 | 18855 ft | 292 kts | 116° |
| 2026-05-06 01:13 | 42.50799 | -73.02028 | 18849 ft | 291 kts | 116° |
| 2026-05-06 01:13 | 42.50098 | -72.99495 | 18849 ft | 290 kts | 116° |
| 2026-05-06 01:14 | 42.48681 | -72.94386 | 18849 ft | 290 kts | 116° |
| 2026-05-06 01:14 | 42.47971 | -72.91830 | 18848 ft | 290 kts | 116° |
| 2026-05-06 01:14 | 42.47264 | -72.89273 | 18842 ft | 290 kts | 116° |
| 2026-05-06 01:15 | 42.46555 | -72.86719 | 18845 ft | 290 kts | 116° |
| 2026-05-06 01:15 | 42.45842 | -72.84166 | 18842 ft | 290 kts | 116° |
| 2026-05-06 01:15 | 42.45130 | -72.81612 | 18843 ft | 290 kts | 116° |
| 2026-05-06 01:15 | 42.44417 | -72.79055 | 18843 ft | 290 kts | 116° |
| 2026-05-06 01:16 | 42.43793 | -72.76463 | 18817 ft | 293 kts | 103° |
| 2026-05-06 01:16 | 42.43953 | -72.73721 | 18847 ft | 295 kts | 76° |
| 2026-05-06 01:16 | 42.44519 | -72.71059 | 18846 ft | 295 kts | 77° |
| 2026-05-06 01:16 | 42.44926 | -72.68344 | 18856 ft | 294 kts | 81° |
| 2026-05-06 01:17 | 42.45314 | -72.65619 | 18847 ft | 295 kts | 79° |
| 2026-05-06 01:17 | 42.45771 | -72.62909 | 18848 ft | 295 kts | 78° |
| 2026-05-06 01:17 | 42.46234 | -72.60197 | 18863 ft | 296 kts | 78° |
| 2026-05-06 01:17 | 42.46672 | -72.57478 | 18871 ft | 296 kts | 79° |
| 2026-05-06 01:18 | 42.47106 | -72.54756 | 18867 ft | 296 kts | 79° |
| 2026-05-06 01:18 | 42.47549 | -72.52035 | 18872 ft | 296 kts | 79° |
| 2026-05-06 01:18 | 42.47993 | -72.49311 | 18877 ft | 296 kts | 79° |
| 2026-05-06 01:18 | 42.48432 | -72.46587 | 18882 ft | 296 kts | 79° |
| 2026-05-06 01:19 | 42.48871 | -72.43864 | 18886 ft | 296 kts | 79° |
| 2026-05-06 01:19 | 42.49311 | -72.41138 | 18883 ft | 296 kts | 79° |
| 2026-05-06 01:19 | 42.49743 | -72.38453 | 18890 ft | 296 kts | 79° |
| 2026-05-06 01:19 | 42.50186 | -72.35691 | 18896 ft | 296 kts | 79° |
| 2026-05-06 01:20 | 42.50618 | -72.33005 | 18895 ft | 296 kts | 79° |
| 2026-05-06 01:20 | 42.51053 | -72.30283 | 18899 ft | 296 kts | 79° |
| 2026-05-06 01:20 | 42.51488 | -72.27559 | 18893 ft | 295 kts | 79° |
| 2026-05-06 01:20 | 42.51922 | -72.24842 | 18898 ft | 295 kts | 79° |
| 2026-05-06 01:21 | 42.52356 | -72.22122 | 18894 ft | 295 kts | 79° |
| 2026-05-06 01:21 | 42.52788 | -72.19403 | 18896 ft | 295 kts | 79° |
| 2026-05-06 01:21 | 42.53219 | -72.16684 | 18893 ft | 295 kts | 79° |
| 2026-05-06 01:21 | 42.53650 | -72.13967 | 18892 ft | 295 kts | 79° |
| 2026-05-06 01:22 | 42.54081 | -72.11250 | 18890 ft | 295 kts | 79° |
| 2026-05-06 01:22 | 42.54510 | -72.08532 | 18889 ft | 295 kts | 79° |
| 2026-05-06 01:22 | 42.54939 | -72.05812 | 18886 ft | 295 kts | 79° |
| 2026-05-06 01:22 | 42.55367 | -72.03096 | 18881 ft | 295 kts | 79° |
| 2026-05-06 01:23 | 42.55794 | -72.00377 | 18867 ft | 294 kts | 79° |
| 2026-05-06 01:23 | 42.56221 | -71.97661 | 18877 ft | 295 kts | 79° |
| 2026-05-06 01:23 | 42.56647 | -71.94944 | 18873 ft | 294 kts | 79° |
| 2026-05-06 01:23 | 42.57072 | -71.92227 | 18874 ft | 294 kts | 79° |
| 2026-05-06 01:24 | 42.57497 | -71.89513 | 18871 ft | 294 kts | 79° |
| 2026-05-06 01:24 | 42.57919 | -71.86800 | 18879 ft | 294 kts | 79° |
| 2026-05-06 01:24 | 42.58341 | -71.84088 | 18876 ft | 294 kts | 79° |
| 2026-05-06 01:24 | 42.58590 | -71.81360 | 18829 ft | 290 kts | 98° |
| 2026-05-06 01:25 | 42.58083 | -71.78773 | 18885 ft | 282 kts | 112° |
| 2026-05-06 01:25 | 42.57634 | -71.76158 | 18878 ft | 286 kts | 104° |
| 2026-05-06 01:25 | 42.57308 | -71.73496 | 18874 ft | 286 kts | 104° |
| 2026-05-06 01:25 | 42.56911 | -71.70897 | 18876 ft | 285 kts | 107° |
| 2026-05-06 01:26 | 42.56465 | -71.68281 | 18877 ft | 285 kts | 107° |
| 2026-05-06 01:26 | 42.56044 | -71.65659 | 18874 ft | 285 kts | 106° |
| 2026-05-06 01:26 | 42.55638 | -71.63029 | 18879 ft | 285 kts | 106° |
| 2026-05-06 01:26 | 42.55223 | -71.60405 | 18876 ft | 285 kts | 107° |
| 2026-05-06 01:27 | 42.54764 | -71.57799 | 18867 ft | 283 kts | 111° |
| 2026-05-06 01:27 | 42.54201 | -71.55247 | 18865 ft | 283 kts | 111° |
| 2026-05-06 01:27 | 42.53665 | -71.52681 | 18864 ft | 283 kts | 110° |
| 2026-05-06 01:27 | 42.53140 | -71.50088 | 18610 ft | 289 kts | 110° |
| 2026-05-06 01:28 | 42.52588 | -71.47429 | 18208 ft | 296 kts | 110° |
| 2026-05-06 01:28 | 42.52031 | -71.44744 | 17784 ft | 297 kts | 110° |
| 2026-05-06 01:28 | 42.51466 | -71.42035 | 17360 ft | 301 kts | 110° |
| 2026-05-06 01:28 | 42.50892 | -71.39288 | 16975 ft | 304 kts | 110° |
| 2026-05-06 01:29 | 42.50317 | -71.36523 | 16575 ft | 306 kts | 110° |
| 2026-05-06 01:29 | 42.49751 | -71.33736 | 16182 ft | 308 kts | 109° |
| 2026-05-06 01:29 | 42.49203 | -71.30931 | 15800 ft | 308 kts | 109° |
| 2026-05-06 01:29 | 42.48647 | -71.28120 | 15410 ft | 309 kts | 109° |
| 2026-05-06 01:30 | 42.48077 | -71.25290 | 14872 ft | 314 kts | 109° |
| 2026-05-06 01:30 | 42.47496 | -71.22410 | 14355 ft | 318 kts | 109° |
| 2026-05-06 01:30 | 42.46917 | -71.19509 | 13854 ft | 320 kts | 109° |
| 2026-05-06 01:30 | 42.46558 | -71.17570 | 13493 ft | 321 kts | 104° |
| 2026-05-06 01:31 | 42.46652 | -71.14534 | 12819 ft | 329 kts | 77° |
| 2026-05-06 01:31 | 42.47527 | -71.11681 | 12249 ft | 328 kts | 58° |
| 2026-05-06 01:31 | 42.49017 | -71.08148 | 11594 ft | 323 kts | 58° |
| 2026-05-06 01:31 | 42.50561 | -71.05981 | 10993 ft | 321 kts | 32° |
| 2026-05-06 01:32 | 42.52524 | -71.04638 | 10480 ft | 313 kts | 13° |
| 2026-05-06 01:32 | 42.53921 | -71.04076 | 10255 ft | 307 kts | 12° |
| 2026-05-06 01:32 | 42.55901 | -71.03073 | 10015 ft | 301 kts | 17° |
| 2026-05-06 01:32 | 42.57829 | -71.02038 | 9788 ft | 295 kts | 16° |
| 2026-05-06 01:33 | 42.59698 | -71.01037 | 9504 ft | 291 kts | 16° |
| 2026-05-06 01:33 | 42.61571 | -71.00032 | 9205 ft | 288 kts | 16° |
| 2026-05-06 01:33 | 42.63425 | -70.99038 | 8926 ft | 285 kts | 15° |
| 2026-05-06 01:33 | 42.65258 | -70.98055 | 8788 ft | 277 kts | 16° |
| 2026-05-06 01:34 | 42.67015 | -70.97103 | 8786 ft | 267 kts | 16° |
| 2026-05-06 01:34 | 42.68708 | -70.96171 | 8794 ft | 258 kts | 15° |
| 2026-05-06 01:34 | 42.70345 | -70.95258 | 8789 ft | 251 kts | 16° |
| 2026-05-06 01:34 | 42.71939 | -70.94360 | 8777 ft | 245 kts | 16° |
| 2026-05-06 01:35 | 42.73497 | -70.93475 | 8775 ft | 241 kts | 16° |
| 2026-05-06 01:35 | 42.75034 | -70.92600 | 8780 ft | 238 kts | 15° |
| 2026-05-06 01:35 | 42.76552 | -70.91738 | 8778 ft | 235 kts | 16° |
| 2026-05-06 01:35 | 42.78046 | -70.90880 | 8766 ft | 233 kts | 16° |
| 2026-05-06 01:36 | 42.79588 | -70.90000 | 8351 ft | 249 kts | 16° |
| 2026-05-06 01:36 | 42.81228 | -70.89079 | 8013 ft | 260 kts | 16° |
| 2026-05-06 01:36 | 42.82925 | -70.88136 | 7688 ft | 267 kts | 15° |
| 2026-05-06 01:36 | 42.84668 | -70.87187 | 7347 ft | 272 kts | 15° |
| 2026-05-06 01:37 | 42.86441 | -70.86233 | 6986 ft | 275 kts | 15° |
| 2026-05-06 01:37 | 42.88227 | -70.85251 | 6677 ft | 278 kts | 15° |
| 2026-05-06 01:37 | 42.89947 | -70.84018 | 6268 ft | 287 kts | 35° |
| 2026-05-06 01:37 | 42.91091 | -70.81801 | 5965 ft | 288 kts | 70° |
| 2026-05-06 01:38 | 42.91274 | -70.79155 | 5786 ft | 275 kts | 105° |
| 2026-05-06 01:38 | 42.90499 | -70.76966 | 5814 ft | 244 kts | 140° |
| 2026-05-06 01:38 | 42.89169 | -70.75886 | 5812 ft | 209 kts | 177° |
| 2026-05-06 01:38 | 42.87791 | -70.75648 | 5829 ft | 199 kts | 178° |
| 2026-05-06 01:39 | 42.86464 | -70.75147 | 5825 ft | 196 kts | 174° |
| 2026-05-06 01:39 | 42.85170 | -70.74637 | 5820 ft | 192 kts | 174° |
| 2026-05-06 01:39 | 42.83900 | -70.74128 | 5827 ft | 189 kts | 175° |
| 2026-05-06 01:39 | 42.82657 | -70.73782 | 5823 ft | 175 kts | 188° |
| 2026-05-06 01:40 | 42.81446 | -70.73640 | 5844 ft | 175 kts | 184° |
| 2026-05-06 01:40 | 42.80241 | -70.73409 | 5854 ft | 174 kts | 183° |
| 2026-05-06 01:40 | 42.79022 | -70.73177 | 5704 ft | 182 kts | 183° |
| 2026-05-06 01:40 | 42.77738 | -70.72946 | 5521 ft | 190 kts | 183° |
| 2026-05-06 01:41 | 42.76411 | -70.72716 | 5344 ft | 194 kts | 183° |
| 2026-05-06 01:41 | 42.75078 | -70.72485 | 5191 ft | 198 kts | 183° |
| 2026-05-06 01:41 | 42.73704 | -70.72250 | 5035 ft | 200 kts | 183° |
| 2026-05-06 01:41 | 42.72319 | -70.72014 | 4901 ft | 201 kts | 183° |
| 2026-05-06 01:42 | 42.70928 | -70.71796 | 4755 ft | 198 kts | 187° |
| 2026-05-06 01:42 | 42.69713 | -70.72310 | 4485 ft | 183 kts | 224° |
| 2026-05-06 01:42 | 42.69160 | -70.73800 | 4263 ft | 183 kts | 262° |
| 2026-05-06 01:42 | 42.69576 | -70.75467 | 4042 ft | 201 kts | 299° |
| 2026-05-06 01:43 | 42.70829 | -70.76517 | 3705 ft | 227 kts | 334° |
| 2026-05-06 01:43 | 42.72298 | -70.77232 | 3478 ft | 222 kts | 324° |
| 2026-05-06 01:43 | 42.73691 | -70.78148 | 3301 ft | 224 kts | 323° |
| 2026-05-06 01:43 | 42.75096 | -70.79079 | 3104 ft | 225 kts | 323° |
| 2026-05-06 01:44 | 42.76514 | -70.80016 | 2905 ft | 227 kts | 323° |
| 2026-05-06 01:44 | 42.78071 | -70.80572 | 2785 ft | 243 kts | 350° |
| 2026-05-06 01:44 | 42.79683 | -70.79823 | 2817 ft | 252 kts | 31° |
| 2026-05-06 01:44 | 42.80705 | -70.77945 | 2820 ft | 247 kts | 72° |
| 2026-05-06 01:45 | 42.80748 | -70.75732 | 2816 ft | 225 kts | 116° |
| 2026-05-06 01:45 | 42.79912 | -70.74169 | 2866 ft | 190 kts | 159° |
| 2026-05-06 01:45 | 42.78779 | -70.73835 | 2936 ft | 153 kts | 202° |
| 2026-05-06 01:45 | 42.77817 | -70.74275 | 2982 ft | 149 kts | 200° |
| 2026-05-06 01:46 | 42.76789 | -70.74445 | 2998 ft | 151 kts | 198° |
| 2026-05-06 01:46 | 42.75672 | -70.74666 | 3029 ft | 170 kts | 199° |
| 2026-05-06 01:46 | 42.74441 | -70.74942 | 3041 ft | 188 kts | 198° |
| 2026-05-06 01:46 | 42.73158 | -70.75408 | 3030 ft | 198 kts | 208° |
| 2026-05-06 01:47 | 42.71836 | -70.76100 | 3031 ft | 210 kts | 206° |
| 2026-05-06 01:47 | 42.70420 | -70.76759 | 3020 ft | 219 kts | 205° |
| 2026-05-06 01:47 | 42.68966 | -70.77435 | 3021 ft | 222 kts | 206° |
| 2026-05-06 01:47 | 42.67551 | -70.78212 | 3018 ft | 216 kts | 213° |
| 2026-05-06 01:48 | 42.66286 | -70.79289 | 3019 ft | 215 kts | 216° |
| 2026-05-06 01:48 | 42.64970 | -70.80264 | 3016 ft | 214 kts | 214° |
| 2026-05-06 01:48 | 42.63672 | -70.81211 | 3004 ft | 209 kts | 214° |
| 2026-05-06 01:48 | 42.62410 | -70.82120 | 3009 ft | 202 kts | 213° |
| 2026-05-06 01:49 | 42.61192 | -70.83000 | 3008 ft | 195 kts | 214° |
| 2026-05-06 01:49 | 42.60012 | -70.83866 | 3013 ft | 191 kts | 214° |
| 2026-05-06 01:49 | 42.58910 | -70.84807 | 3013 ft | 183 kts | 222° |
| 2026-05-06 01:49 | 42.58010 | -70.85985 | 3007 ft | 178 kts | 232° |
| 2026-05-06 01:50 | 42.57274 | -70.87314 | 3012 ft | 175 kts | 234° |
| 2026-05-06 01:50 | 42.56502 | -70.88604 | 3011 ft | 177 kts | 232° |
| 2026-05-06 01:50 | 42.55714 | -70.89874 | 3013 ft | 176 kts | 232° |
| 2026-05-06 01:50 | 42.54884 | -70.91083 | 3013 ft | 177 kts | 225° |
| 2026-05-06 01:51 | 42.53866 | -70.92055 | 3006 ft | 181 kts | 213° |
| 2026-05-06 01:51 | 42.52694 | -70.92673 | 3011 ft | 179 kts | 205° |
| 2026-05-06 01:51 | 42.51517 | -70.93197 | 2901 ft | 180 kts | 207° |
| 2026-05-06 01:51 | 42.50338 | -70.93792 | 2687 ft | 182 kts | 208° |
| 2026-05-06 01:52 | 42.49133 | -70.94367 | 2457 ft | 185 kts | 206° |
| 2026-05-06 01:52 | 42.47921 | -70.94957 | 2202 ft | 182 kts | 206° |
| 2026-05-06 01:52 | 42.46782 | -70.95508 | 1965 ft | 166 kts | 206° |
| 2026-05-06 01:52 | 42.45787 | -70.95988 | 1779 ft | 138 kts | 208° |
| 2026-05-06 01:53 | 42.44968 | -70.96395 | 1573 ft | 114 kts | 207° |
| 2026-05-06 01:53 | 42.44276 | -70.96726 | 1312 ft | 100 kts | 207° |
| 2026-05-06 01:53 | 42.43609 | -70.97063 | 878 ft | 103 kts | 203° |
| 2026-05-06 01:53 | 42.42913 | -70.97398 | 883 ft | 108 kts | 202° |
| 2026-05-06 01:54 | 42.42189 | -70.97735 | 913 ft | 113 kts | 204° |
| 2026-05-06 01:54 | 42.41423 | -70.98112 | 896 ft | 121 kts | 204° |
| 2026-05-06 01:54 | 42.40606 | -70.98520 | 847 ft | 129 kts | 202° |
| 2026-05-06 01:54 | 42.39760 | -70.98914 | 680 ft | 125 kts | 201° |
| 2026-05-06 01:55 | 42.38974 | -70.99294 | 496 ft | 110 kts | 201° |
| 2026-05-06 01:55 | 42.38301 | -70.99622 | 285 ft | 97 kts | 200° |
| 2026-05-06 01:55 | 42.37683 | -70.99935 | 118 ft | 92 kts | 200° |
| 2026-05-06 01:55 | 42.37110 | -71.00216 | 28 ft | 81 kts | 200° |
| 2026-05-06 01:56 | 42.36627 | -71.00450 | 26 ft | 64 kts | 199° |
| 2026-05-06 01:56 | 42.36215 | -71.00650 | 25 ft | 50 kts | 200° |
| 2026-05-06 01:56 | 42.35937 | -71.00877 | 27 ft | 27 kts | 231° |
| 2026-05-06 01:56 | 42.35825 | -71.01039 | 25 ft | 31 kts | 221° |
| 2026-05-06 01:57 | 42.35805 | -71.01135 | 27 ft | 9 kts | 341° |
| 2026-05-06 01:57 | 42.35846 | -71.01250 | 25 ft | 18 kts | 277° |
| 2026-05-06 01:57 | 42.35868 | -71.01442 | 26 ft | 20 kts | 281° |
| 2026-05-06 01:57 | 42.35879 | -71.01521 | 28 ft | 0 kts | 281° |
| 2026-05-06 01:58 | 42.35865 | -71.01559 | 27 ft | 13 kts | 212° |
| 2026-05-06 01:58 | 42.35829 | -71.01663 | 25 ft | 4 kts | 283° |
| 2026-05-06 01:58 | 42.35842 | -71.01673 | 28 ft | 7 kts | 21° |
| 2026-05-06 01:58 | 42.35909 | -71.01711 | 28 ft | 19 kts | 277° |
| 2026-05-06 01:59 | 42.35962 | -71.01804 | 25 ft | 10 kts | 4° |
| 2026-05-06 01:59 | 42.35985 | -71.01794 | 25 ft | 0 kts | 20° |